Flight Track Log - Related Links

Times and Time Zones

All times are in EDT time to prevent confusion due to time zone crossing. See the CTL15 flight status page for this flight to view local times or setup timezone preferences in your user account.

Time Position Orientation Groundspeed Altitude Reporting Facility
EDT Latitude Longitude Course Direction KTS MPH feet Rate Location/Type
Wed 07:43:28 PM 39.6375 -84.1953 North 132 152 2,500  Level Indianapolis Center
Wed 07:44:11 PM 39.6608 -84.1942 North 122 140 3,400 923 Climbing Indianapolis Center
Wed 07:45:12 PM 39.6814 -84.1942 360° North 98 113 4,100 550 Climbing Indianapolis Center
Wed 07:46:00 PM 39.6933 -84.1644 62° Northeast 123 142 4,400 298 Climbing Indianapolis Center
Wed 07:47:13 PM 39.7247 -84.1072 54° Northeast 156 180 4,700 224 Climbing Indianapolis Center
Wed 07:48:14 PM 39.7486 -84.0597 57° Northeast 161 185 4,900 298 Climbing Indianapolis Center
Wed 07:49:14 PM 39.7725 -84.0122 57° Northeast 160 184 5,300 417 Climbing Indianapolis Center
Wed 07:50:09 PM 39.7939 -83.9694 57° Northeast 153 176 5,700 310 Climbing Indianapolis Center
Wed 07:51:10 PM 39.8200 -83.9194 56° Northeast 166 191 5,900 248 Climbing Indianapolis Center
Wed 07:52:10 PM 39.8506 -83.8703 51° Northeast 172 198 6,200 248 Climbing Indianapolis Center
Wed 07:53:11 PM 39.8825 -83.8239 48° Northeast 172 198 6,400 316 Climbing Indianapolis Center
Wed 07:54:23 PM 39.9214 -83.7753 44° Northeast 169 194 6,900 347 Climbing Indianapolis Center
Wed 07:55:12 PM 39.9500 -83.7400 43° Northeast 162 186 7,100 109 Climbing Indianapolis Center
Wed 07:56:13 PM 39.9839 -83.6967 44° Northeast 174 200 7,100  Level Indianapolis Center
Wed 07:57:13 PM 40.0200 -83.6508 44° Northeast 174 200 7,100 493 Level Indianapolis Center
Wed 07:58:27 PM 40.0525 -83.6058 47° Northeast 142 163 8,200 797 Climbing Indianapolis Center
Wed 07:59:21 PM 40.0761 -83.5756 44° Northeast 128 147 8,800 439 Climbing Indianapolis Center
Wed 08:00:30 PM 40.1067 -83.5394 42° Northeast 132 152 9,100 142 Climbing Indianapolis Center
Wed 08:01:28 PM 40.1428 -83.4967 42° Northeast 173 199 9,100  Level Indianapolis Center
Wed 08:02:29 PM 40.1761 -83.4556 43° Northeast 171 197 9,100  Level Indianapolis Center
Wed 08:03:34 PM 40.2131 -83.4125 42° Northeast 171 197 9,100  Level Indianapolis Center
Wed 08:04:18 PM 40.2428 -83.3764 43° Northeast 176 203 9,100  Level Indianapolis Center
Wed 08:05:36 PM 40.2853 -83.3242 43° Northeast 175 201 9,100 43 Level Indianapolis Center
Wed 08:06:37 PM 40.3214 -83.2792 44° Northeast 177 204 9,200  Climbing Indianapolis Center
Wed 08:07:38 PM 40.3600 -83.2311 43° Northeast 177 204 9,100 -49 Descending Indianapolis Center
Wed 08:08:39 PM 40.3942 -83.1819 48° Northeast 181 208 9,100  Level Indianapolis Center
Wed 08:09:41 PM 40.4289 -83.1417 41° Northeast 178 205 9,100  Level Indianapolis Center
Wed 08:10:43 PM 40.4692 -83.0864 46° Northeast 178 205 9,100  Level Indianapolis Center
Wed 08:11:44 PM 40.5067 -83.0397 43° Northeast 182 209 9,100  Level Indianapolis Center
Wed 08:12:45 PM 40.5458 -82.9969 40° Northeast 179 206 9,100  Level Indianapolis Center
Wed 08:13:47 PM 40.5819 -82.9503 44° Northeast 180 207 9,100  Level Indianapolis Center
Wed 08:14:48 PM 40.6189 -82.9064 42° Northeast 178 205 9,100  Level Indianapolis Center
Wed 08:15:49 PM 40.6569 -82.8625 41° Northeast 180 207 9,100  Level Indianapolis Center
Wed 08:16:51 PM 40.6906 -82.8136 48° Northeast 179 206 9,100  Level Indianapolis Center
Wed 08:17:52 PM 40.7233 -82.7639 49° Northeast 179 206 9,100  Level Indianapolis Center
Wed 08:18:53 PM 40.7544 -82.7117 52° Northeast 179 206 9,100  Level Indianapolis Center
Wed 08:19:55 PM 40.7911 -82.6681 42° Northeast 177 204 9,100  Level Indianapolis Center
Wed 08:20:56 PM 40.8317 -82.6319 34° Northeast 174 200 9,100  Level Indianapolis Center
Wed 08:21:57 PM 40.8733 -82.5972 32° Northeast 174 200 9,100  Level Indianapolis Center

Login

Don't have an account? Register now (free) for customized features, flight alerts, and more!